createdAt,value
2018-02-11T00:00:31.573Z,3.55
2018-02-11T00:01:31.837Z,3.51
2018-02-11T00:02:32.121Z,3.53
2018-02-11T00:03:31.610Z,3.59
2018-02-11T00:04:31.887Z,3.55
2018-02-11T00:05:31.889Z,3.42
2018-02-11T00:06:31.905Z,3.51
2018-02-11T00:07:31.912Z,3.4
2018-02-11T00:08:32.177Z,3.53
2018-02-11T00:10:31.951Z,3.28
2018-02-11T00:11:31.778Z,3.34
2018-02-11T00:12:31.750Z,3.25
2018-02-11T00:13:32.248Z,3.31
2018-02-11T00:14:32.279Z,3.36
2018-02-11T00:15:32.018Z,3.4
2018-02-11T00:16:32.283Z,3.42
2018-02-11T00:17:32.301Z,3.48
2018-02-11T00:18:31.844Z,3.48
2018-02-11T00:19:31.816Z,3.59
2018-02-11T00:20:31.829Z,3.47
2018-02-11T00:21:31.840Z,3.26
2018-02-11T00:22:31.857Z,3.23
2018-02-11T00:23:32.119Z,3.29
2018-02-11T00:24:31.877Z,3.29
2018-02-11T00:25:32.147Z,3.31
2018-02-11T00:26:32.157Z,3.32
2018-02-11T00:27:32.173Z,3.18
2018-02-11T00:28:32.187Z,3.03
2018-02-11T00:29:32.195Z,3.26
2018-02-11T00:30:31.966Z,3.34
2018-02-11T00:31:31.970Z,3.29
2018-02-11T00:32:32.236Z,3.34
2018-02-11T00:33:32.007Z,3.5
2018-02-11T00:34:32.257Z,3.55
2018-02-11T00:35:32.524Z,3.59
2018-02-11T00:36:32.332Z,3.5
2018-02-11T00:37:32.306Z,3.31
2018-02-11T00:38:32.310Z,3.45
2018-02-11T00:39:32.577Z,3.44
2018-02-11T00:40:32.344Z,3.59
2018-02-11T00:41:32.352Z,3.51
2018-02-11T00:42:32.380Z,3.76
2018-02-11T00:43:32.625Z,3.73
2018-02-11T00:44:32.388Z,3.59
2018-02-11T00:45:32.417Z,3.55
2018-02-11T00:46:32.413Z,3.62
2018-02-11T00:47:32.440Z,3.37
2018-02-11T00:48:32.447Z,3.45
2018-02-11T00:49:32.704Z,3.37
2018-02-11T00:50:32.463Z,3.48
2018-02-11T00:51:32.477Z,3.41
2018-02-11T00:52:32.745Z,3.44
2018-02-11T00:53:32.501Z,3.5
2018-02-11T00:54:32.772Z,3.45
2018-02-11T00:55:32.779Z,3.41
2018-02-11T00:56:32.539Z,3.45
2018-02-11T00:57:32.801Z,3.53
2018-02-11T00:58:32.313Z,3.58
2018-02-11T00:59:32.326Z,3.53
2018-02-11T01:00:32.844Z,3.36
2018-02-11T01:01:32.856Z,3.29
2018-02-11T01:02:32.369Z,3.41
2018-02-11T01:03:32.881Z,3.47
2018-02-11T01:04:32.643Z,3.51
2018-02-11T01:05:32.907Z,3.58
2018-02-11T01:06:32.670Z,3.62
2018-02-11T01:07:32.430Z,3.6
2018-02-11T01:08:32.704Z,3.59
2018-02-11T01:09:32.708Z,3.45
2018-02-11T01:10:32.982Z,3.44
2018-02-11T01:11:32.741Z,3.32
2018-02-11T01:12:32.496Z,3.37
2018-02-11T01:13:32.503Z,3.31
2018-02-11T01:14:32.763Z,3.29
2018-02-11T01:15:33.032Z,3.4
2018-02-11T01:16:32.558Z,3.34
2018-02-11T01:17:33.060Z,3.31
2018-02-11T01:18:32.822Z,3.36
2018-02-11T01:19:32.853Z,3.28
2018-02-11T01:20:33.123Z,3.4
2018-02-11T01:21:32.912Z,3.44
2018-02-11T01:22:33.127Z,3.55
2018-02-11T01:23:32.894Z,3.62
2018-02-11T01:24:32.648Z,3.6
2018-02-11T01:25:32.932Z,3.34
2018-02-11T01:26:32.934Z,3.32
2018-02-11T01:27:32.942Z,3.31
2018-02-11T01:28:32.962Z,3.26
2018-02-11T01:29:33.216Z,3.22
2018-02-11T01:30:33.231Z,3.21
2018-02-11T01:31:32.982Z,3.19
2018-02-11T01:32:33.001Z,3.32
2018-02-11T01:33:33.255Z,3.31
2018-02-11T01:34:33.019Z,3.34
2018-02-11T01:35:32.790Z,3.37
2018-02-11T01:36:32.801Z,3.23
2018-02-11T01:37:33.073Z,3.26
2018-02-11T01:38:33.082Z,3.21
2018-02-11T01:39:33.093Z,3.26
2018-02-11T01:40:32.857Z,3.26
2018-02-11T01:41:33.378Z,3.42
2018-02-11T01:42:33.133Z,3.32
2018-02-11T01:43:33.143Z,3.32
2018-02-11T01:44:33.164Z,3.34
2018-02-11T01:45:32.919Z,3.41
2018-02-11T01:46:33.447Z,3.48
2018-02-11T01:47:33.195Z,3.45
2018-02-11T01:48:33.207Z,3.44
2018-02-11T01:49:32.972Z,3.31
2018-02-11T01:50:33.485Z,3.31
2018-02-11T01:51:33.500Z,3.32
2018-02-11T01:52:33.512Z,3.41
2018-02-11T01:53:33.035Z,3.29
2018-02-11T01:54:33.546Z,3.19
2018-02-11T01:55:33.298Z,3.16
2018-02-11T01:56:33.061Z,3.22
2018-02-11T01:57:33.580Z,3.04
2018-02-11T01:58:33.341Z,3
2018-02-11T01:59:33.356Z,2.97
2018-02-11T02:00:33.366Z,2.95
2018-02-11T02:01:33.123Z,2.97
2018-02-11T02:02:33.140Z,2.97
2018-02-11T02:03:33.660Z,2.95
2018-02-11T02:04:33.415Z,3
2018-02-11T02:05:33.427Z,3.08
2018-02-11T02:06:33.193Z,2.98
2018-02-11T02:07:33.703Z,2.95
2018-02-11T02:08:33.789Z,3
2018-02-11T02:09:33.732Z,3.05
2018-02-11T02:10:33.237Z,3.08
2018-02-11T02:11:33.251Z,3.03
2018-02-11T02:12:33.514Z,3.11
2018-02-11T02:13:33.542Z,3.05
2018-02-11T02:14:33.799Z,3.1
2018-02-11T02:15:33.550Z,3.04
2018-02-11T02:16:33.563Z,3.08
2018-02-11T02:17:33.829Z,3.01
2018-02-11T02:18:33.342Z,3.01
2018-02-11T02:19:33.600Z,3.16
2018-02-11T02:20:33.615Z,3
2018-02-11T02:21:33.633Z,2.92
2018-02-11T02:22:33.890Z,2.93
2018-02-11T02:23:33.664Z,2.93
2018-02-11T02:24:33.919Z,2.92
2018-02-11T02:25:33.933Z,2.97
2018-02-11T02:26:33.441Z,3.05
2018-02-11T02:27:33.953Z,3.03
2018-02-11T02:28:33.718Z,3.04
2018-02-11T02:29:33.979Z,3.05
2018-02-11T02:30:33.737Z,3.08
2018-02-11T02:31:33.752Z,3.03
2018-02-11T02:32:34.014Z,2.92
2018-02-11T02:33:34.035Z,2.82
2018-02-11T02:34:33.807Z,2.93
2018-02-11T02:35:34.058Z,2.86
2018-02-11T02:36:33.818Z,2.69
2018-02-11T02:37:34.098Z,2.8
2018-02-11T02:38:33.850Z,2.72
2018-02-11T02:39:34.123Z,2.72
2018-02-11T02:40:33.870Z,2.69
2018-02-11T02:41:33.630Z,2.62
2018-02-11T02:42:33.640Z,2.6
2018-02-11T02:43:33.904Z,2.72
2018-02-11T02:44:33.666Z,2.69
2018-02-11T02:45:33.934Z,2.62
2018-02-11T02:46:34.202Z,2.57
2018-02-11T02:47:33.955Z,2.62
2018-02-11T02:48:33.968Z,2.6
2018-02-11T02:49:33.990Z,2.6
2018-02-11T02:50:33.998Z,2.56
2018-02-11T02:51:34.006Z,2.6
2018-02-11T02:52:34.025Z,2.51
2018-02-11T02:53:34.034Z,2.53
2018-02-11T02:54:34.044Z,2.62
2018-02-11T02:55:34.060Z,2.53
2018-02-11T02:56:34.074Z,2.44
2018-02-11T02:57:34.082Z,2.46
2018-02-11T02:58:34.107Z,2.51
2018-02-11T02:59:34.378Z,2.44
2018-02-11T03:00:34.123Z,2.39
2018-02-11T03:01:33.885Z,2.49
2018-02-11T03:02:34.398Z,2.54
2018-02-11T03:03:34.163Z,2.67
2018-02-11T03:04:34.422Z,2.65
2018-02-11T03:05:34.438Z,2.6
2018-02-11T03:06:33.937Z,2.53
2018-02-11T03:07:34.203Z,2.46
2018-02-11T03:08:34.216Z,2.42
2018-02-11T03:09:33.975Z,2.43
2018-02-11T03:10:33.990Z,2.44
2018-02-11T03:11:34.510Z,2.35
2018-02-11T03:12:34.264Z,2.31
2018-02-11T03:13:34.526Z,2.32
2018-02-11T03:14:34.293Z,2.29
2018-02-11T03:15:34.604Z,2.38
2018-02-11T03:16:34.310Z,2.39
2018-02-11T03:17:34.575Z,2.49
2018-02-11T03:18:34.582Z,2.44
2018-02-11T03:19:34.344Z,2.36
2018-02-11T03:20:34.365Z,2.44
2018-02-11T03:21:34.619Z,2.38
2018-02-11T03:22:34.380Z,2.36
2018-02-11T03:23:34.401Z,2.28
2018-02-11T03:24:34.423Z,2.15
2018-02-11T03:25:34.478Z,2.22
2018-02-11T03:26:34.687Z,2.18
2018-02-11T03:27:34.464Z,2.26
2018-02-11T03:28:34.464Z,2.36
2018-02-11T03:29:34.745Z,2.35
2018-02-11T03:30:34.751Z,2.28
2018-02-11T03:31:34.764Z,2.29
2018-02-11T03:32:34.285Z,2.24
2018-02-11T03:33:34.272Z,2.29
2018-02-11T03:34:34.784Z,2.38
2018-02-11T03:35:34.798Z,2.35
2018-02-11T03:36:34.810Z,2.36
2018-02-11T03:37:34.574Z,2.32
2018-02-11T03:38:34.836Z,2.26
2018-02-11T03:39:34.850Z,2.42
2018-02-11T03:40:34.857Z,2.32
2018-02-11T03:41:34.624Z,2.53
2018-02-11T03:42:34.645Z,2.54
2018-02-11T03:43:34.647Z,2.5
2018-02-11T03:44:34.911Z,2.62
2018-02-11T03:45:34.667Z,2.64
2018-02-11T03:46:34.690Z,2.62
2018-02-11T03:47:34.693Z,2.54
2018-02-11T03:48:34.711Z,2.49
2018-02-11T03:49:34.725Z,2.56
2018-02-11T03:50:34.731Z,2.56
2018-02-11T03:51:34.742Z,2.6
2018-02-11T03:52:35.012Z,2.67
2018-02-11T03:53:35.033Z,2.61
2018-02-11T03:54:34.780Z,2.64
2018-02-11T03:55:34.538Z,2.69
2018-02-11T03:56:35.055Z,2.65
2018-02-11T03:57:34.816Z,2.69
2018-02-11T03:58:35.083Z,2.69
2018-02-11T03:59:35.096Z,2.74
2018-02-11T04:00:35.115Z,2.77
2018-02-11T04:01:34.615Z,2.79
2018-02-11T04:02:35.128Z,2.82
2018-02-11T04:03:35.142Z,2.85
2018-02-11T04:04:35.140Z,2.64
2018-02-11T04:05:34.665Z,2.68
2018-02-11T04:06:34.927Z,2.61
2018-02-11T04:07:35.192Z,2.75
2018-02-11T04:08:34.960Z,2.6
2018-02-11T04:09:34.967Z,2.61
2018-02-11T04:10:35.229Z,2.68
2018-02-11T04:11:34.742Z,2.62
2018-02-11T04:12:35.252Z,2.6
2018-02-11T04:13:35.016Z,2.69
2018-02-11T04:14:35.045Z,2.57
2018-02-11T04:15:34.790Z,2.67
2018-02-11T04:16:35.303Z,2.61
2018-02-11T04:17:35.070Z,2.67
2018-02-11T04:18:35.335Z,2.6
2018-02-11T04:19:35.342Z,2.69
2018-02-11T04:20:35.104Z,2.65
2018-02-11T04:21:34.866Z,2.61
2018-02-11T04:22:35.396Z,2.57
2018-02-11T04:23:35.390Z,2.62
2018-02-11T04:24:35.152Z,2.67
2018-02-11T04:25:34.914Z,2.54
2018-02-11T04:26:35.433Z,2.6
2018-02-11T04:27:35.443Z,2.64
2018-02-11T04:28:34.949Z,2.5
2018-02-11T04:29:35.470Z,2.56
2018-02-11T04:30:35.484Z,2.64
2018-02-11T04:31:35.240Z,2.56
2018-02-11T04:32:35.509Z,2.72
2018-02-11T04:33:35.266Z,2.68
2018-02-11T04:34:35.277Z,2.75
2018-02-11T04:35:35.293Z,2.67
2018-02-11T04:36:35.552Z,2.6
2018-02-11T04:37:35.565Z,2.49
2018-02-11T04:38:35.341Z,2.56
2018-02-11T04:39:35.087Z,2.54
2018-02-11T04:40:35.650Z,2.51
2018-02-11T04:41:35.638Z,2.35
2018-02-11T04:42:35.377Z,2.32
2018-02-11T04:43:35.659Z,2.42
2018-02-11T04:44:35.655Z,2.38
2018-02-11T04:45:35.160Z,2.5
2018-02-11T04:46:35.175Z,2.26
2018-02-11T04:47:35.704Z,2.17
2018-02-11T04:48:35.706Z,2.28
2018-02-11T04:49:35.470Z,2.29
2018-02-11T04:50:35.729Z,2.42
2018-02-11T04:51:35.743Z,2.43
2018-02-11T04:52:35.750Z,2.32
2018-02-11T04:53:35.763Z,2.29
2018-02-11T04:54:35.273Z,2.28
2018-02-11T04:55:35.285Z,2.29
2018-02-11T04:56:35.800Z,2.28
2018-02-11T04:57:35.814Z,2.17
2018-02-11T04:58:35.572Z,2.25
2018-02-11T04:59:35.344Z,2.22
2018-02-11T05:00:35.603Z,2.29
2018-02-11T05:01:35.866Z,2.2
2018-02-11T05:02:35.894Z,2.32
2018-02-11T05:03:35.635Z,2.14
2018-02-11T05:04:35.663Z,2.35
2018-02-11T05:05:35.659Z,2.25
2018-02-11T05:06:35.672Z,2.15
2018-02-11T05:07:35.698Z,2.22
2018-02-11T05:08:35.943Z,2.32
2018-02-11T05:09:35.706Z,2.28
2018-02-11T05:10:35.971Z,2.22
2018-02-11T05:11:36.040Z,2.28
2018-02-11T05:12:35.746Z,2.32
2018-02-11T05:13:35.510Z,2.29
2018-02-11T05:14:35.770Z,2.31
2018-02-11T05:15:36.064Z,2.26
2018-02-11T05:16:36.094Z,2.26
2018-02-11T05:17:35.550Z,2.36
2018-02-11T05:18:35.565Z,2.39
2018-02-11T05:19:35.825Z,2.36
2018-02-11T05:20:35.841Z,2.26
2018-02-11T05:21:35.598Z,2.32
2018-02-11T05:22:35.880Z,2.29
2018-02-11T05:23:35.920Z,2.28
2018-02-11T05:24:35.638Z,2.35
2018-02-11T05:25:36.148Z,2.31
2018-02-11T05:26:35.914Z,2.35
2018-02-11T05:27:35.674Z,2.29
2018-02-11T05:28:36.190Z,2.26
2018-02-11T05:29:35.951Z,2.15
2018-02-11T05:30:36.209Z,2.28
2018-02-11T05:31:35.972Z,2.28
2018-02-11T05:32:35.984Z,2.26
2018-02-11T05:33:35.998Z,2.18
2018-02-11T05:34:36.010Z,2.28
2018-02-11T05:35:36.278Z,2.29
2018-02-11T05:36:36.284Z,2.28
2018-02-11T05:37:36.301Z,2.42
2018-02-11T05:38:36.319Z,2.42
2018-02-11T05:39:36.064Z,2.39
2018-02-11T05:40:36.087Z,2.43
2018-02-11T05:41:36.092Z,2.39
2018-02-11T05:42:36.111Z,2.28
2018-02-11T05:43:36.366Z,2.28
2018-02-11T05:44:36.129Z,2.32
2018-02-11T05:45:35.888Z,2.31
2018-02-11T05:46:35.902Z,2.32
2018-02-11T05:47:36.162Z,2.32
2018-02-11T05:48:35.924Z,2.36
2018-02-11T05:49:36.193Z,2.43
2018-02-11T05:50:35.947Z,2.42
2018-02-11T05:51:35.960Z,2.39
2018-02-11T05:52:36.471Z,2.43
2018-02-11T05:53:36.486Z,2.46
2018-02-11T05:54:36.252Z,2.5
2018-02-11T05:55:36.267Z,2.43
2018-02-11T05:56:36.023Z,2.31
2018-02-11T05:57:36.290Z,2.42
2018-02-11T05:58:36.297Z,2.47
2018-02-11T05:59:36.609Z,2.54
2018-02-11T06:00:36.324Z,2.43
2018-02-11T06:01:36.345Z,2.26
2018-02-11T06:02:36.346Z,2.32
2018-02-11T06:03:36.360Z,2.24
2018-02-11T06:04:36.671Z,2.2
2018-02-11T06:05:36.380Z,2.08
2018-02-11T06:06:36.651Z,2.15
2018-02-11T06:07:36.404Z,2.2
2018-02-11T06:08:36.680Z,2.25
2018-02-11T06:09:36.679Z,2.17
2018-02-11T06:10:36.196Z,2.1
2018-02-11T06:11:36.202Z,2.06
2018-02-11T06:12:36.474Z,2.14
2018-02-11T06:13:36.733Z,2.24
2018-02-11T06:14:36.751Z,2.24
2018-02-11T06:15:36.754Z,2.24
2018-02-11T06:16:36.768Z,2.2
2018-02-11T06:17:36.526Z,2.13
2018-02-11T06:18:36.285Z,2.24
2018-02-11T06:19:36.804Z,2.04
2018-02-11T06:20:36.814Z,2.06
2018-02-11T06:21:36.574Z,2.07
2018-02-11T06:22:36.586Z,1.95
2018-02-11T06:23:36.921Z,2.06
2018-02-11T06:24:36.611Z,2.24
2018-02-11T06:25:36.868Z,2.14
2018-02-11T06:26:36.636Z,2.1
2018-02-11T06:27:36.899Z,2.11
2018-02-11T06:28:36.655Z,2.07
2018-02-11T06:29:36.418Z,2.13
2018-02-11T06:30:36.682Z,2
2018-02-11T06:31:36.460Z,1.74
2018-02-11T06:32:36.962Z,1.94
2018-02-11T06:33:36.469Z,1.95
2018-02-11T06:34:36.730Z,2.04
2018-02-11T06:35:36.743Z,2.06
2018-02-11T06:36:37.010Z,2.07
2018-02-11T06:37:36.770Z,2.02
2018-02-11T06:38:36.527Z,2.08
2018-02-11T06:39:36.795Z,2.07
2018-02-11T06:40:37.050Z,2.06
2018-02-11T06:41:36.808Z,2.07
2018-02-11T06:42:36.569Z,2.08
2018-02-11T06:43:36.832Z,2.17
2018-02-11T06:44:36.853Z,2.07
2018-02-11T06:45:37.108Z,2.26
2018-02-11T06:46:36.620Z,2.17
2018-02-11T06:47:37.133Z,2.22
2018-02-11T06:48:36.650Z,2.22
2018-02-11T06:49:36.652Z,2.35
2018-02-11T06:50:36.667Z,2.2
2018-02-11T06:51:37.302Z,2.26
2018-02-11T06:52:37.199Z,2.25
2018-02-11T06:53:37.215Z,2.25
2018-02-11T06:54:36.973Z,2.29
2018-02-11T06:55:37.227Z,2.25
2018-02-11T06:56:36.989Z,2.26
2018-02-11T06:57:37.002Z,2.25
2018-02-11T06:58:37.281Z,2.26
2018-02-11T06:59:37.031Z,2.35
2018-02-11T07:00:37.290Z,2.32
2018-02-11T07:01:37.323Z,2.39
2018-02-11T07:02:37.312Z,2.25
2018-02-11T07:03:36.822Z,2.35
2018-02-11T07:04:37.344Z,2.38
2018-02-11T07:05:37.349Z,2.29
2018-02-11T07:06:37.226Z,2.29
2018-02-11T07:07:52.048Z,2.31
2018-02-11T07:08:36.884Z,2.29
2018-02-11T07:09:36.899Z,2.29
2018-02-11T07:10:37.419Z,2.28
2018-02-11T07:11:37.173Z,2.35
2018-02-11T07:12:37.186Z,2.42
2018-02-11T07:13:37.213Z,2.44
2018-02-11T07:14:37.209Z,2.43
2018-02-11T07:15:36.972Z,2.33
2018-02-11T07:16:37.254Z,2.46
2018-02-11T07:17:37.246Z,2.43
2018-02-11T07:18:37.512Z,2.44
2018-02-11T07:19:37.530Z,2.49
2018-02-11T07:20:37.533Z,2.61
2018-02-11T07:21:37.544Z,2.53
2018-02-11T07:22:37.558Z,2.54
2018-02-11T07:23:37.065Z,2.54
2018-02-11T07:24:37.079Z,2.57
2018-02-11T07:25:37.596Z,2.64
2018-02-11T07:26:37.354Z,2.62
2018-02-11T07:27:37.653Z,2.57
2018-02-11T07:28:37.378Z,2.56
2018-02-11T07:29:37.654Z,2.61
2018-02-11T07:30:37.660Z,2.67
2018-02-11T07:31:37.672Z,2.69
2018-02-11T07:32:37.692Z,2.82
2018-02-11T07:33:37.189Z,2.85
2018-02-11T07:34:37.455Z,2.8
2018-02-11T07:35:37.477Z,2.89
2018-02-11T07:36:37.227Z,3.05
2018-02-11T07:37:37.513Z,2.92
2018-02-11T07:38:37.753Z,3.04
2018-02-11T07:39:37.262Z,3.16
2018-02-11T07:40:37.272Z,3.16
2018-02-11T07:41:37.545Z,3.19
2018-02-11T07:42:37.812Z,3.31
2018-02-11T07:43:37.574Z,3.44
2018-02-11T07:44:37.630Z,3.29
2018-02-11T07:45:37.642Z,3.42
2018-02-11T07:46:37.606Z,3.5
2018-02-11T07:47:37.621Z,3.63
2018-02-11T07:48:37.651Z,3.76
2018-02-11T07:49:37.642Z,3.8
2018-02-11T07:50:37.405Z,3.81
2018-02-11T07:51:37.671Z,3.94
2018-02-11T07:52:37.933Z,3.99
2018-02-11T07:53:37.953Z,3.96
2018-02-11T07:54:37.709Z,4.1
2018-02-11T07:55:37.726Z,4.2
2018-02-11T07:56:37.484Z,4.3
2018-02-11T07:57:38.003Z,4.2
2018-02-11T07:58:37.765Z,4.38
2018-02-11T07:59:38.030Z,4.3
2018-02-11T08:00:38.042Z,4.35
2018-02-11T08:01:37.550Z,4.58
2018-02-11T08:02:37.820Z,4.62
2018-02-11T08:03:38.079Z,4.49
2018-02-11T08:04:37.841Z,4.49
2018-02-11T08:05:37.858Z,4.49
2018-02-11T08:06:37.873Z,4.5
2018-02-11T08:07:37.633Z,4.58
2018-02-11T08:08:37.902Z,4.66
2018-02-11T08:09:38.164Z,4.67
2018-02-11T08:10:37.949Z,4.3
2018-02-11T08:11:38.190Z,4.44
2018-02-11T08:12:38.204Z,4.48
2018-02-11T08:13:37.968Z,4.49
2018-02-11T08:14:37.985Z,4.49
2018-02-11T08:15:38.244Z,4.48
2018-02-11T08:16:38.263Z,4.59
2018-02-11T08:17:38.027Z,4.77
2018-02-11T08:18:38.057Z,4.58
2018-02-11T08:19:38.295Z,4.71
2018-02-11T08:20:38.312Z,4.68
2018-02-11T08:21:37.822Z,4.77
2018-02-11T08:22:38.344Z,4.8
2018-02-11T08:23:38.109Z,4.71
2018-02-11T08:24:38.391Z,4.67
2018-02-11T08:25:38.509Z,4.63
2018-02-11T08:26:38.145Z,4.7
2018-02-11T08:27:38.157Z,4.82
2018-02-11T08:28:38.423Z,4.8
2018-02-11T08:29:38.187Z,4.87
2018-02-11T08:30:38.452Z,4.86
2018-02-11T08:31:38.482Z,4.71
2018-02-11T08:32:38.477Z,4.75
2018-02-11T08:33:38.251Z,4.93
2018-02-11T08:34:38.005Z,5.1
2018-02-11T08:35:38.523Z,5.15
2018-02-11T08:36:38.286Z,5.05
2018-02-11T08:37:38.553Z,5.1
2018-02-11T08:38:38.311Z,5.02
2018-02-11T08:39:38.325Z,4.94
2018-02-11T08:40:38.341Z,5.04
2018-02-11T08:41:38.677Z,5.05
2018-02-11T08:42:38.369Z,4.9
2018-02-11T08:43:38.637Z,5.05
2018-02-11T08:44:38.402Z,5.12
2018-02-11T08:45:38.415Z,5.12
2018-02-11T08:46:38.430Z,5.02
2018-02-11T08:47:38.448Z,5.12
2018-02-11T08:48:38.709Z,5.07
2018-02-11T08:49:38.485Z,5.15
2018-02-11T08:50:38.486Z,5.05
2018-02-11T08:51:38.512Z,5.05
2018-02-11T08:52:38.514Z,5.07
2018-02-11T08:53:38.535Z,5.23
2018-02-11T08:54:38.844Z,5.3
2018-02-11T08:55:38.549Z,5.39
2018-02-11T08:56:38.574Z,5.51
2018-02-11T08:57:38.838Z,5.26
2018-02-11T08:58:38.601Z,5.11
2018-02-11T08:59:38.868Z,5.12
2018-02-11T09:00:38.891Z,5.1
2018-02-11T09:01:38.649Z,5.05
2018-02-11T09:02:38.661Z,4.92
2018-02-11T09:03:38.686Z,4.97
2018-02-11T09:04:38.438Z,5.08
2018-02-11T09:05:38.953Z,5.18
2018-02-11T09:06:38.974Z,5.38
2018-02-11T09:07:38.746Z,5.51
2018-02-11T09:08:38.500Z,5.71
2018-02-11T09:09:38.531Z,5.71
2018-02-11T09:10:38.790Z,5.65
2018-02-11T09:11:38.790Z,5.73
2018-02-11T09:12:38.805Z,5.66
2018-02-11T09:13:38.826Z,5.64
2018-02-11T09:14:39.088Z,5.59
2018-02-11T09:15:39.103Z,5.5
2018-02-11T09:16:39.114Z,5.56
2018-02-11T09:17:38.879Z,5.47
2018-02-11T09:18:39.147Z,5.46
2018-02-11T09:19:38.916Z,5.61
2018-02-11T09:20:38.922Z,5.61
2018-02-11T09:21:39.193Z,5.68
2018-02-11T09:22:38.979Z,5.48
2018-02-11T09:23:39.221Z,5.61
2018-02-11T09:24:38.981Z,5.62
2018-02-11T09:25:39.268Z,5.69
2018-02-11T09:26:38.761Z,5.66
2018-02-11T09:27:39.026Z,5.82
2018-02-11T09:28:39.040Z,5.62
2018-02-11T09:29:39.317Z,5.65
2018-02-11T09:30:39.086Z,5.94
2018-02-11T09:31:39.338Z,5.99
2018-02-11T09:32:38.853Z,5.99
2018-02-11T09:33:39.368Z,5.84
2018-02-11T09:34:39.132Z,5.91
2018-02-11T09:35:39.147Z,6.01
2018-02-11T09:36:39.173Z,6.09
2018-02-11T09:37:38.930Z,6.08
2018-02-11T09:38:39.207Z,6.28
2018-02-11T09:39:39.222Z,6.41
2018-02-11T09:40:38.972Z,6.26
2018-02-11T09:41:39.243Z,6.28
2018-02-11T09:42:39.256Z,6.2
2018-02-11T09:43:39.271Z,6.28
2018-02-11T09:44:39.038Z,6.28
2018-02-11T09:45:39.322Z,6.24
2018-02-11T09:46:39.065Z,6.28
2018-02-11T09:47:39.339Z,6.48
2018-02-11T09:48:39.347Z,6.41
2018-02-11T09:49:39.113Z,6.49
2018-02-11T09:50:54.303Z,6.75
2018-02-11T09:51:39.397Z,6.69
2018-02-11T09:52:39.414Z,6.48
2018-02-11T09:53:39.425Z,6.59
2018-02-11T09:54:39.698Z,6.69
2018-02-11T09:55:39.711Z,6.81
2018-02-11T09:56:39.724Z,6.93
2018-02-11T09:57:39.490Z,7.11
2018-02-11T09:58:39.762Z,7.42
2018-02-11T09:59:39.522Z,7.57
2018-02-11T10:00:39.792Z,7.57
2018-02-11T10:01:39.302Z,7.67
2018-02-11T10:02:39.569Z,7.58
2018-02-11T10:03:39.843Z,7.31
2018-02-11T10:04:39.610Z,7.39
2018-02-11T10:05:39.871Z,7.6
2018-02-11T10:06:39.637Z,7.76
2018-02-11T10:07:39.654Z,7.72
2018-02-11T10:08:39.675Z,7.69
2018-02-11T10:09:39.701Z,7.93
2018-02-11T10:10:39.454Z,8
2018-02-11T10:11:39.726Z,7.97
2018-02-11T10:12:39.490Z,7.95
2018-02-11T10:13:40.018Z,7.95
2018-02-11T10:14:39.541Z,7.95
2018-02-11T10:15:39.793Z,8.12
2018-02-11T10:16:39.812Z,8.24
2018-02-11T10:17:39.836Z,7.91
2018-02-11T10:18:39.594Z,7.83
2018-02-11T10:19:40.116Z,8.03
2018-02-11T10:20:40.134Z,7.88
2018-02-11T10:21:39.904Z,7.75
2018-02-11T10:22:39.917Z,7.79
2018-02-11T10:23:39.680Z,7.33
2018-02-11T10:24:39.971Z,7.53
2018-02-11T10:25:40.223Z,7.5
2018-02-11T10:26:39.987Z,7.42
2018-02-11T10:27:39.752Z,7.53
2018-02-11T10:28:40.285Z,7.53
2018-02-11T10:29:40.292Z,7.03
2018-02-11T10:30:39.816Z,6.88
2018-02-11T10:31:40.081Z,6.95
2018-02-11T10:32:39.835Z,7.14
2018-02-11T10:33:40.105Z,7.31
2018-02-11T10:34:40.377Z,7.45
2018-02-11T10:35:40.136Z,7.17
2018-02-11T10:36:40.162Z,6.96
2018-02-11T10:37:40.428Z,7.11
2018-02-11T10:38:40.186Z,7.4
2018-02-11T10:39:40.455Z,7.5
2018-02-11T10:40:40.219Z,7.69
2018-02-11T10:41:40.495Z,7.87
2018-02-11T10:42:40.564Z,7.88
2018-02-11T10:43:40.277Z,7.98
2018-02-11T10:44:40.534Z,8.05
2018-02-11T10:45:40.553Z,7.88
2018-02-11T10:46:40.069Z,7.88
2018-02-11T10:47:40.589Z,7.85
2018-02-11T10:48:40.619Z,7.75
2018-02-11T10:49:40.624Z,7.91
2018-02-11T10:50:40.415Z,7.76
2018-02-11T10:51:40.153Z,7.75
2018-02-11T10:52:40.423Z,7.79
2018-02-11T10:53:40.439Z,7.73
2018-02-11T10:54:40.475Z,7.7
2018-02-11T10:55:40.470Z,7.66
2018-02-11T10:56:40.487Z,7.57
2018-02-11T10:57:40.759Z,7.53
2018-02-11T10:58:40.810Z,7.45
2018-02-11T10:59:40.804Z,7.39
2018-02-11T11:00:40.568Z,7.51
2018-02-11T11:01:40.825Z,7.67
2018-02-11T11:02:40.842Z,7.82
2018-02-11T11:03:40.866Z,7.9
2018-02-11T11:04:40.623Z,7.94
2018-02-11T11:05:40.901Z,8.12
2018-02-11T11:06:40.656Z,8.05
2018-02-11T11:07:40.674Z,8.19
2018-02-11T11:08:40.718Z,8.34
2018-02-11T11:09:40.709Z,8.44
2018-02-11T11:10:40.725Z,8.63
2018-02-11T11:11:40.742Z,8.48
2018-02-11T11:12:40.511Z,8.6
2018-02-11T11:13:40.780Z,8.7
2018-02-11T11:14:40.542Z,8.82
2018-02-11T11:15:41.062Z,8.78
2018-02-11T11:16:40.829Z,8.76
2018-02-11T11:17:40.848Z,8.82
2018-02-11T11:18:41.132Z,8.71
2018-02-11T11:19:41.129Z,8.44
2018-02-11T11:20:41.154Z,8.3
2018-02-11T11:21:40.956Z,8.34
2018-02-11T11:22:40.681Z,8.23
2018-02-11T11:23:40.957Z,8.19
2018-02-11T11:24:40.964Z,8.1
2018-02-11T11:25:41.054Z,8.12
2018-02-11T11:26:40.746Z,7.94
2018-02-11T11:27:41.078Z,8
2018-02-11T11:28:41.034Z,8.1
2018-02-11T11:29:41.053Z,8.16
2018-02-11T11:30:40.817Z,8.15
2018-02-11T11:31:41.114Z,8.1
2018-02-11T11:32:41.353Z,7.9
2018-02-11T11:33:41.116Z,8.05
2018-02-11T11:34:41.140Z,8.1
2018-02-11T11:35:41.155Z,8.01
2018-02-11T11:36:40.932Z,8
2018-02-11T11:37:41.195Z,8.08
2018-02-11T11:38:41.246Z,7.72
2018-02-11T11:39:40.973Z,7.53
2018-02-11T11:40:41.236Z,7.31
2018-02-11T11:41:41.503Z,7.2
2018-02-11T11:42:41.527Z,6.93
2018-02-11T11:43:41.288Z,6.87
2018-02-11T11:44:41.299Z,6.95
2018-02-11T11:45:41.571Z,6.95
2018-02-11T11:46:41.588Z,6.92
2018-02-11T11:47:41.352Z,6.66
2018-02-11T11:48:41.366Z,6.42
2018-02-11T11:49:41.383Z,6.48
2018-02-11T11:50:41.648Z,6.66
2018-02-11T11:51:41.407Z,6.87
2018-02-11T11:52:41.170Z,6.88
2018-02-11T11:53:41.464Z,6.97
2018-02-11T11:54:41.715Z,7.15
2018-02-11T11:55:41.473Z,7.23
2018-02-11T11:56:41.744Z,7.31
2018-02-11T11:57:41.260Z,7.21
2018-02-11T11:58:41.528Z,7.17
2018-02-11T11:59:41.792Z,7.32
2018-02-11T12:00:41.300Z,7.18
2018-02-11T12:01:41.573Z,7.25
2018-02-11T12:02:41.592Z,7.23
2018-02-11T12:03:41.859Z,7.21
2018-02-11T12:04:41.874Z,7.36
2018-02-11T12:05:41.648Z,7.43
2018-02-11T12:06:41.900Z,7.45
2018-02-11T12:07:41.414Z,7.45
2018-02-11T12:08:41.429Z,7.53
2018-02-11T12:09:41.701Z,7.36
2018-02-11T12:10:41.710Z,7.54
2018-02-11T12:11:41.730Z,7.45
2018-02-11T12:12:41.746Z,7.4
2018-02-11T12:13:41.760Z,7.23
2018-02-11T12:14:42.030Z,7.29
2018-02-11T12:15:41.791Z,7.58
2018-02-11T12:16:41.811Z,7.67
2018-02-11T12:17:41.822Z,7.75
2018-02-11T12:18:41.841Z,7.76
2018-02-11T12:19:42.255Z,7.6
2018-02-11T12:20:41.968Z,7.69
2018-02-11T12:21:41.929Z,7.9
2018-02-11T12:22:42.157Z,7.85
2018-02-11T12:23:42.171Z,7.82
2018-02-11T12:24:41.942Z,7.93
2018-02-11T12:25:41.954Z,7.82
2018-02-11T12:26:42.224Z,7.76
2018-02-11T12:27:42.240Z,7.88
2018-02-11T12:28:41.752Z,8
2018-02-11T12:29:42.029Z,8.23
2018-02-11T12:30:41.786Z,8.34
2018-02-11T12:31:42.314Z,8.23
2018-02-11T12:32:42.069Z,8.38
2018-02-11T12:33:42.090Z,8.33
2018-02-11T12:34:42.357Z,8.28
2018-02-11T12:35:42.372Z,8.28
2018-02-11T12:36:42.397Z,8.34
2018-02-11T12:37:42.403Z,8.27
2018-02-11T12:38:41.915Z,8.15
2018-02-11T12:39:42.187Z,8.06
2018-02-11T12:40:42.210Z,7.9
2018-02-11T12:41:42.490Z,7.91
2018-02-11T12:42:42.234Z,7.76
2018-02-11T12:43:42.251Z,7.6
2018-02-11T12:44:42.518Z,7.67
2018-02-11T12:45:42.565Z,7.56
2018-02-11T12:46:42.556Z,7.4
2018-02-11T12:47:42.315Z,7.32
2018-02-11T12:48:42.337Z,7.13
2018-02-11T12:49:42.445Z,7.1
2018-02-11T12:50:42.112Z,7.13
2018-02-11T12:51:42.385Z,7.29
2018-02-11T12:52:42.651Z,7.43
2018-02-11T12:53:42.413Z,7.53
2018-02-11T12:54:42.180Z,7.38
2018-02-11T12:55:42.703Z,7.43
2018-02-11T12:56:42.715Z,7.39
2018-02-11T12:57:42.745Z,7.45
2018-02-11T12:58:42.495Z,7.42
2018-02-11T12:59:42.767Z,7.33
2018-02-11T13:00:42.277Z,7.33
2018-02-11T13:01:42.390Z,7.32
2018-02-11T13:02:42.669Z,7.38
2018-02-11T13:03:42.590Z,7.38
2018-02-11T13:04:42.599Z,7.48
2018-02-11T13:05:42.605Z,7.61
2018-02-11T13:06:42.622Z,7.73
2018-02-11T13:07:42.893Z,7.88
2018-02-11T13:08:42.657Z,7.94
2018-02-11T13:09:42.420Z,7.75
2018-02-11T13:10:42.687Z,7.87
2018-02-11T13:11:42.456Z,7.8
2018-02-11T13:12:42.737Z,7.77
2018-02-11T13:13:42.738Z,7.9
2018-02-11T13:14:43.007Z,7.93
2018-02-11T13:15:42.518Z,7.91
2018-02-11T13:16:42.533Z,7.76
2018-02-11T13:17:42.803Z,7.79
2018-02-11T13:18:42.825Z,8.08
2018-02-11T13:19:43.086Z,8.18
2018-02-11T13:21:42.873Z,7.97
2018-02-11T13:22:42.882Z,7.76
2018-02-11T13:23:42.647Z,7.66